createdAt,value
2023-01-11T00:00:19.911Z,96.75
2023-01-11T00:01:19.852Z,97.03
2023-01-11T00:02:19.881Z,97.03
2023-01-11T00:03:19.736Z,97.13
2023-01-11T00:04:19.752Z,97.41
2023-01-11T00:05:19.616Z,97.13
2023-01-11T00:06:19.553Z,97.31
2023-01-11T00:07:19.504Z,97.31
2023-01-11T00:08:19.444Z,97.31
2023-01-11T00:09:19.377Z,97.13
2023-01-11T00:10:19.327Z,97.03
2023-01-11T00:11:19.266Z,97.31
2023-01-11T00:12:19.213Z,97.13
2023-01-11T00:13:19.151Z,97.13
2023-01-11T00:14:19.114Z,97.31
2023-01-11T00:15:19.034Z,97.41
2023-01-11T00:16:19.002Z,96.94
2023-01-11T00:17:18.913Z,97.03
2023-01-11T00:18:18.859Z,97.13
2023-01-11T00:19:18.788Z,97.41
2023-01-11T00:20:18.741Z,97.41
2023-01-11T00:21:18.674Z,97.13
2023-01-11T00:22:18.615Z,97.13
2023-01-11T00:23:18.577Z,97.13
2023-01-11T00:24:18.501Z,97.13
2023-01-11T00:25:18.437Z,97.03
2023-01-11T00:26:18.401Z,97.31
2023-01-11T00:27:18.321Z,97.13
2023-01-11T00:28:18.263Z,97.31
2023-01-11T00:29:18.207Z,97.31
2023-01-11T00:30:18.143Z,97.22
2023-01-11T00:31:18.143Z,97.03
2023-01-11T00:32:18.026Z,97.03
2023-01-11T00:33:17.975Z,97.31
2023-01-11T00:34:17.907Z,97.31
2023-01-11T00:35:17.853Z,97.03
2023-01-11T00:36:17.797Z,97.31
2023-01-11T00:37:17.737Z,97.31
2023-01-11T00:38:17.675Z,97.31
2023-01-11T00:39:17.620Z,97.51
2023-01-11T00:40:17.562Z,97.31
2023-01-11T00:41:17.494Z,97.41
2023-01-11T00:42:17.433Z,97.60
2023-01-11T00:43:17.383Z,97.31
2023-01-11T00:44:17.325Z,97.41
2023-01-11T00:45:17.256Z,97.31
2023-01-11T00:46:17.258Z,97.89
2023-01-11T00:47:17.148Z,97.41
2023-01-11T00:48:17.087Z,97.70
2023-01-11T00:49:17.043Z,97.99
2023-01-11T00:50:16.961Z,97.60
2023-01-11T00:51:16.904Z,98.08
2023-01-11T00:52:16.847Z,98.08
2023-01-11T00:53:16.792Z,97.89
2023-01-11T00:54:16.740Z,98.18
2023-01-11T00:55:16.677Z,98.08
2023-01-11T00:56:16.608Z,97.89
2023-01-11T00:57:23.207Z,97.89
2023-01-11T00:58:16.493Z,97.99
2023-01-11T00:59:16.434Z,97.99
2023-01-11T01:00:16.380Z,97.99
2023-01-11T01:01:16.406Z,97.79
2023-01-11T01:02:16.322Z,98.18
2023-01-11T01:03:16.228Z,98.18
2023-01-11T01:04:16.138Z,97.89
2023-01-11T01:05:16.089Z,97.99
2023-01-11T01:06:16.024Z,97.89
2023-01-11T01:07:15.965Z,97.89
2023-01-11T01:08:15.929Z,97.89
2023-01-11T01:09:15.842Z,97.60
2023-01-11T01:10:15.795Z,97.89
2023-01-11T01:11:15.740Z,97.79
2023-01-11T01:12:15.668Z,97.60
2023-01-11T01:13:15.613Z,98.08
2023-01-11T01:14:15.549Z,98.08
2023-01-11T01:15:15.501Z,97.89
2023-01-11T01:16:15.478Z,97.89
2023-01-11T01:17:15.377Z,97.89
2023-01-11T01:18:15.326Z,98.08
2023-01-11T01:19:15.582Z,98.08
2023-01-11T01:20:15.209Z,98.08
2023-01-11T01:21:15.142Z,98.18
2023-01-11T01:22:15.080Z,97.99
2023-01-11T01:23:15.024Z,98.08
2023-01-11T01:24:14.962Z,98.08
2023-01-11T01:25:14.904Z,98.08
2023-01-11T01:26:14.849Z,97.89
2023-01-11T01:27:14.796Z,97.99
2023-01-11T01:28:14.734Z,97.99
2023-01-11T01:29:14.687Z,98.18
2023-01-11T01:30:14.692Z,98.08
2023-01-11T01:31:14.620Z,97.99
2023-01-11T01:32:14.501Z,98.18
2023-01-11T01:33:14.435Z,98.18
2023-01-11T01:34:14.372Z,98.36
2023-01-11T01:35:14.314Z,97.79
2023-01-11T01:36:14.260Z,98.74
2023-01-11T01:37:14.193Z,98.74
2023-01-11T01:38:14.149Z,98.18
2023-01-11T01:39:14.085Z,98.18
2023-01-11T01:40:14.017Z,98.36
2023-01-11T01:41:13.963Z,98.18
2023-01-11T01:42:13.906Z,98.08
2023-01-11T01:43:13.922Z,97.99
2023-01-11T01:44:15.723Z,97.99
2023-01-11T01:45:15.727Z,97.89
2023-01-11T01:46:13.699Z,97.99
2023-01-11T01:47:15.251Z,98.08
2023-01-11T01:48:13.547Z,97.99
2023-01-11T01:49:13.512Z,97.99
2023-01-11T01:50:13.437Z,98.08
2023-01-11T01:51:13.390Z,98.08
2023-01-11T01:52:13.319Z,98.08
2023-01-11T01:53:13.278Z,97.99
2023-01-11T01:54:13.195Z,97.99
2023-01-11T01:55:13.135Z,97.70
2023-01-11T01:56:13.079Z,97.99
2023-01-11T01:57:13.017Z,98.08
2023-01-11T01:58:12.964Z,98.18
2023-01-11T01:59:12.906Z,98.94
2023-01-11T02:00:12.848Z,98.36
2023-01-11T02:01:12.782Z,98.36
2023-01-11T02:02:12.722Z,98.74
2023-01-11T02:03:12.663Z,98.65
2023-01-11T02:04:12.673Z,98.65
2023-01-11T02:05:12.546Z,98.46
2023-01-11T02:06:12.490Z,98.65
2023-01-11T02:07:12.432Z,98.65
2023-01-11T02:08:12.370Z,98.65
2023-01-11T02:09:12.314Z,98.65
2023-01-11T02:10:12.259Z,98.84
2023-01-11T02:11:12.189Z,98.36
2023-01-11T02:12:12.136Z,98.36
2023-01-11T02:13:12.083Z,98.55
2023-01-11T02:14:12.017Z,98.36
2023-01-11T02:15:11.960Z,98.36
2023-01-11T02:16:11.922Z,98.46
2023-01-11T02:17:11.844Z,98.46
2023-01-11T02:18:11.781Z,98.18
2023-01-11T02:19:11.721Z,98.46
2023-01-11T02:20:11.659Z,98.18
2023-01-11T02:21:11.601Z,98.18
2023-01-11T02:22:11.547Z,98.55
2023-01-11T02:23:11.484Z,98.27
2023-01-11T02:24:11.425Z,98.94
2023-01-11T02:25:11.370Z,98.55
2023-01-11T02:26:11.305Z,99.03
2023-01-11T02:27:11.246Z,98.94
2023-01-11T02:28:11.211Z,99.03
2023-01-11T02:29:11.132Z,99.13
2023-01-11T02:30:11.069Z,99.03
2023-01-11T02:31:11.058Z,98.84
2023-01-11T02:32:10.965Z,98.84
2023-01-11T02:33:10.907Z,98.84
2023-01-11T02:34:10.842Z,98.84
2023-01-11T02:35:10.790Z,99.13
2023-01-11T02:36:10.724Z,99.13
2023-01-11T02:37:10.658Z,99.22
2023-01-11T02:38:10.624Z,98.84
2023-01-11T02:39:10.542Z,98.84
2023-01-11T02:40:10.483Z,98.94
2023-01-11T02:41:10.434Z,98.94
2023-01-11T02:42:10.361Z,98.94
2023-01-11T02:43:10.320Z,99.03
2023-01-11T02:44:10.247Z,99.41
2023-01-11T02:45:10.194Z,99.03
2023-01-11T02:46:10.199Z,99.22
2023-01-11T02:47:10.073Z,99.13
2023-01-11T02:48:10.024Z,99.22
2023-01-11T02:49:09.964Z,98.94
2023-01-11T02:50:09.897Z,99.22
2023-01-11T02:51:09.833Z,99.13
2023-01-11T02:52:09.780Z,99.03
2023-01-11T02:53:09.720Z,99.03
2023-01-11T02:54:09.658Z,99.32
2023-01-11T02:55:09.600Z,99.13
2023-01-11T02:56:09.543Z,99.13
2023-01-11T02:57:09.484Z,99.13
2023-01-11T02:58:09.424Z,99.32
2023-01-11T02:59:09.372Z,99.89
2023-01-11T03:00:09.304Z,99.89
2023-01-11T03:01:09.249Z,99.69
2023-01-11T03:02:09.184Z,99.99
2023-01-11T03:03:09.151Z,99.69
2023-01-11T03:04:09.068Z,99.89
2023-01-11T03:05:09.009Z,99.89
2023-01-11T03:06:08.950Z,99.79
2023-01-11T03:07:08.889Z,99.89
2023-01-11T03:08:08.834Z,99.69
2023-01-11T03:09:08.776Z,99.60
2023-01-11T03:10:08.711Z,99.89
2023-01-11T03:11:08.659Z,99.79
2023-01-11T03:12:08.605Z,99.79
2023-01-11T03:13:08.538Z,99.69
2023-01-11T03:14:08.478Z,99.99
2023-01-11T03:15:08.426Z,99.98
2023-01-11T03:16:08.450Z,99.99
2023-01-11T03:17:08.301Z,99.89
2023-01-11T03:18:08.254Z,99.60
2023-01-11T03:19:08.193Z,99.22
2023-01-11T03:20:08.122Z,99.99
2023-01-11T03:21:08.067Z,99.99
2023-01-11T03:22:08.017Z,99.89
2023-01-11T03:23:07.943Z,99.99
2023-01-11T03:24:07.897Z,99.99
2023-01-11T03:25:07.831Z,99.89
2023-01-11T03:26:07.768Z,99.79
2023-01-11T03:27:07.709Z,99.89
2023-01-11T03:28:07.660Z,99.99
2023-01-11T03:29:07.591Z,99.99
2023-01-11T03:30:07.531Z,99.99
2023-01-11T03:31:07.506Z,99.99
2023-01-11T03:32:07.414Z,99.99
2023-01-11T03:33:07.359Z,99.99
2023-01-11T03:34:07.297Z,99.99
2023-01-11T03:35:07.243Z,99.99
2023-01-11T03:36:07.184Z,99.99
2023-01-11T03:37:07.137Z,99.99
2023-01-11T03:38:07.068Z,99.99
2023-01-11T03:39:07.001Z,99.99
2023-01-11T03:40:06.948Z,99.99
2023-01-11T03:41:06.886Z,99.99
2023-01-11T03:42:06.828Z,99.99
2023-01-11T03:43:06.772Z,99.99
2023-01-11T03:44:06.708Z,99.99
2023-01-11T03:45:06.653Z,99.99
2023-01-11T03:46:06.595Z,99.99
2023-01-11T03:47:06.534Z,99.99
2023-01-11T03:48:06.484Z,99.99
2023-01-11T03:49:06.420Z,99.99
2023-01-11T03:50:06.352Z,99.99
2023-01-11T03:51:06.300Z,99.89
2023-01-11T03:52:06.238Z,99.99
2023-01-11T03:53:06.176Z,99.99
2023-01-11T03:54:06.117Z,99.99
2023-01-11T03:55:06.067Z,99.99
2023-01-11T03:56:05.997Z,99.99
2023-01-11T03:57:05.955Z,99.99
2023-01-11T03:58:05.888Z,99.99
2023-01-11T03:59:05.828Z,99.99
2023-01-11T04:00:05.816Z,99.99
2023-01-11T04:01:05.782Z,99.99
2023-01-11T04:02:05.652Z,99.99
2023-01-11T04:03:05.595Z,99.99
2023-01-11T04:04:05.560Z,99.99
2023-01-11T04:05:05.468Z,99.99
2023-01-11T04:06:05.412Z,99.99
2023-01-11T04:07:05.363Z,99.99
2023-01-11T04:08:05.305Z,99.99
2023-01-11T04:09:05.236Z,99.99
2023-01-11T04:10:05.184Z,99.99
2023-01-11T04:11:05.117Z,99.99
2023-01-11T04:12:05.062Z,99.99
2023-01-11T04:13:05.005Z,99.99
2023-01-11T04:14:04.936Z,99.99
2023-01-11T04:15:05.761Z,99.99
2023-01-11T04:16:04.870Z,99.99
2023-01-11T04:17:04.776Z,99.99
2023-01-11T04:18:04.706Z,99.99
2023-01-11T04:19:04.644Z,99.99
2023-01-11T04:20:04.585Z,99.99
2023-01-11T04:21:04.537Z,99.99
2023-01-11T04:22:04.471Z,99.99
2023-01-11T04:23:04.423Z,99.99
2023-01-11T04:24:04.355Z,99.99
2023-01-11T04:25:04.298Z,99.99
2023-01-11T04:26:04.231Z,99.99
2023-01-11T04:27:04.178Z,99.99
2023-01-11T04:28:04.112Z,99.99
2023-01-11T04:29:04.060Z,99.99
2023-01-11T04:30:04.007Z,99.99
2023-01-11T04:31:03.945Z,99.99
2023-01-11T04:32:03.883Z,99.99
2023-01-11T04:33:03.816Z,99.99
2023-01-11T04:34:03.762Z,99.99
2023-01-11T04:35:03.721Z,99.99
2023-01-11T04:36:03.642Z,99.99
2023-01-11T04:37:03.608Z,99.99
2023-01-11T04:38:03.525Z,99.99
2023-01-11T04:39:03.480Z,99.99
2023-01-11T04:40:03.401Z,99.99
2023-01-11T04:41:03.353Z,99.99
2023-01-11T04:42:03.294Z,99.99
2023-01-11T04:43:03.234Z,99.99
2023-01-11T04:44:03.170Z,99.99
2023-01-11T04:45:03.117Z,99.99
2023-01-11T04:46:03.143Z,99.99
2023-01-11T04:47:02.997Z,99.99
2023-01-11T04:48:02.940Z,99.99
2023-01-11T04:49:02.892Z,99.99
2023-01-11T04:50:02.828Z,99.99
2023-01-11T04:51:02.768Z,99.99
2023-01-11T04:52:02.698Z,99.99
2023-01-11T04:53:02.646Z,99.99
2023-01-11T04:54:02.584Z,99.99
2023-01-11T04:55:02.532Z,99.99
2023-01-11T04:56:02.477Z,99.99
2023-01-11T04:57:02.417Z,99.99
2023-01-11T04:58:02.343Z,99.99
2023-01-11T04:59:02.290Z,99.99
2023-01-11T05:00:02.248Z,99.99
2023-01-11T05:01:02.253Z,99.99
2023-01-11T05:02:02.109Z,99.99
2023-01-11T05:03:02.079Z,99.99
2023-01-11T05:04:02.072Z,99.99
2023-01-11T05:05:01.937Z,99.99
2023-01-11T05:06:01.872Z,99.99
2023-01-11T05:07:01.873Z,99.99
2023-01-11T05:08:01.761Z,99.99
2023-01-11T05:09:01.706Z,99.99
2023-01-11T05:10:01.679Z,99.99
2023-01-11T05:11:01.585Z,99.99
2023-01-11T05:12:01.525Z,99.99
2023-01-11T05:13:01.462Z,99.99
2023-01-11T05:14:01.454Z,99.99
2023-01-11T05:15:01.350Z,99.99
2023-01-11T05:16:01.287Z,99.99
2023-01-11T05:17:01.228Z,99.99
2023-01-11T05:18:01.168Z,99.99
2023-01-11T05:19:01.110Z,99.99
2023-01-11T05:20:01.059Z,99.99
2023-01-11T05:21:01.015Z,99.99
2023-01-11T05:22:00.936Z,99.99
2023-01-11T05:23:00.876Z,99.99
2023-01-11T05:24:00.822Z,99.99
2023-01-11T05:25:00.757Z,99.99
2023-01-11T05:26:00.698Z,99.99
2023-01-11T05:27:00.646Z,99.99
2023-01-11T05:28:00.585Z,99.99
2023-01-11T05:29:00.523Z,99.99
2023-01-11T05:30:00.477Z,99.99
2023-01-11T05:31:00.401Z,99.99
2023-01-11T05:32:00.425Z,99.99
2023-01-11T05:33:00.286Z,99.99
2023-01-11T05:34:00.223Z,99.99
2023-01-11T05:35:00.213Z,99.99
2023-01-11T05:36:00.136Z,99.99
2023-01-11T05:37:00.046Z,99.99
2023-01-11T05:37:59.991Z,99.99
2023-01-11T05:38:59.935Z,99.99
2023-01-11T05:39:59.880Z,99.99
2023-01-11T05:40:59.822Z,99.99
2023-01-11T05:41:59.756Z,99.99
2023-01-11T05:42:59.706Z,99.99
2023-01-11T05:43:59.633Z,99.99
2023-01-11T05:44:59.580Z,99.99
2023-01-11T05:45:59.605Z,99.99
2023-01-11T05:46:59.518Z,99.99
2023-01-11T05:47:59.396Z,99.99
2023-01-11T05:48:59.343Z,99.99
2023-01-11T05:49:59.285Z,99.99
2023-01-11T05:51:01.449Z,99.99
2023-01-11T05:51:59.160Z,99.99
2023-01-11T05:52:59.111Z,99.99
2023-01-11T05:53:59.044Z,99.99
2023-01-11T05:54:58.998Z,99.99
2023-01-11T05:56:00.782Z,99.99
2023-01-11T05:56:58.880Z,99.99
2023-01-11T05:57:58.824Z,99.99
2023-01-11T05:58:58.760Z,99.99
2023-01-11T05:59:58.695Z,99.99
2023-01-11T06:00:58.636Z,99.99
2023-01-11T06:01:58.642Z,99.99
2023-01-11T06:02:58.620Z,99.99
2023-01-11T06:03:58.520Z,99.99
2023-01-11T06:04:58.400Z,99.99
2023-01-11T06:05:58.342Z,99.99
2023-01-11T06:06:58.334Z,99.99
2023-01-11T06:07:58.224Z,99.99
2023-01-11T06:08:58.163Z,99.99
2023-01-11T06:09:58.112Z,99.99
2023-01-11T06:10:58.048Z,99.99
2023-01-11T06:11:57.985Z,99.99
2023-01-11T06:12:57.934Z,99.99
2023-01-11T06:13:57.868Z,99.99
2023-01-11T06:14:57.825Z,99.99
2023-01-11T06:15:57.748Z,99.99
2023-01-11T06:16:57.777Z,99.99
2023-01-11T06:17:57.633Z,99.99
2023-01-11T06:18:57.573Z,99.99
2023-01-11T06:19:57.525Z,99.99
2023-01-11T06:20:57.465Z,99.99
2023-01-11T06:21:57.397Z,99.99
2023-01-11T06:22:57.337Z,99.99
2023-01-11T06:23:57.282Z,99.99
2023-01-11T06:24:57.221Z,99.99
2023-01-11T06:25:57.161Z,99.99
2023-01-11T06:26:57.119Z,99.99
2023-01-11T06:27:57.053Z,99.99
2023-01-11T06:28:56.986Z,99.99
2023-01-11T06:29:56.924Z,99.99
2023-01-11T06:30:57.101Z,99.99
2023-01-11T06:31:56.809Z,99.99
2023-01-11T06:32:56.752Z,99.99
2023-01-11T06:33:56.692Z,99.99
2023-01-11T06:34:56.635Z,99.99
2023-01-11T06:35:56.579Z,99.99
2023-01-11T06:36:56.530Z,99.99
2023-01-11T06:37:56.459Z,99.99
2023-01-11T06:38:56.402Z,99.99
2023-01-11T06:39:56.333Z,99.99
2023-01-11T06:40:56.288Z,99.99
2023-01-11T06:41:56.227Z,99.99
2023-01-11T06:42:56.167Z,99.99
2023-01-11T06:43:56.104Z,99.99
2023-01-11T06:44:56.046Z,99.99
2023-01-11T06:45:56.047Z,99.99
2023-01-11T06:46:55.933Z,99.99
2023-01-11T06:47:55.869Z,99.99
2023-01-11T06:48:55.807Z,99.99
2023-01-11T06:49:55.750Z,99.99
2023-01-11T06:50:55.689Z,99.99
2023-01-11T06:51:55.628Z,99.99
2023-01-11T06:52:55.583Z,99.99
2023-01-11T06:53:55.523Z,99.99
2023-01-11T06:54:55.458Z,99.99
2023-01-11T06:55:55.402Z,99.99
2023-01-11T06:56:55.337Z,99.99
2023-01-11T06:57:55.285Z,99.99
2023-01-11T06:58:55.226Z,99.99
2023-01-11T06:59:55.159Z,99.99
2023-01-11T07:00:55.220Z,99.99
2023-01-11T07:01:55.047Z,99.99
2023-01-11T07:02:54.999Z,99.99
2023-01-11T07:03:54.934Z,99.99
2023-01-11T07:04:54.928Z,99.99
2023-01-11T07:05:54.806Z,99.99
2023-01-11T07:06:54.756Z,99.99
2023-01-11T07:07:54.692Z,99.99
2023-01-11T07:08:54.635Z,99.99
2023-01-11T07:09:54.572Z,99.99
2023-01-11T07:10:54.518Z,99.99
2023-01-11T07:11:54.460Z,99.99
2023-01-11T07:12:54.401Z,99.99
2023-01-11T07:13:54.341Z,99.99
2023-01-11T07:14:54.279Z,99.99
2023-01-11T07:15:54.469Z,99.99
2023-01-11T07:16:54.165Z,99.99
2023-01-11T07:17:54.107Z,99.99
2023-01-11T07:18:54.050Z,99.99
2023-01-11T07:19:53.987Z,99.99
2023-01-11T07:20:53.933Z,99.99
2023-01-11T07:21:53.874Z,99.99
2023-01-11T07:22:53.813Z,99.99
2023-01-11T07:23:53.747Z,99.99
2023-01-11T07:24:53.692Z,99.99
2023-01-11T07:25:53.697Z,99.99
2023-01-11T07:26:53.581Z,99.99
2023-01-11T07:27:53.517Z,99.99
2023-01-11T07:28:53.461Z,99.99
2023-01-11T07:29:53.401Z,99.99
2023-01-11T07:30:58.756Z,99.99
2023-01-11T07:31:53.296Z,99.99
2023-01-11T07:32:53.225Z,99.99
2023-01-11T07:33:53.164Z,99.99
2023-01-11T07:34:53.121Z,99.99
2023-01-11T07:35:53.047Z,99.99
2023-01-11T07:36:52.994Z,99.99
2023-01-11T07:37:52.926Z,99.99
2023-01-11T07:38:52.874Z,99.99
2023-01-11T07:39:52.811Z,99.99
2023-01-11T07:40:53.762Z,99.99
2023-01-11T07:41:52.708Z,99.99
2023-01-11T07:42:52.630Z,99.99
2023-01-11T07:43:52.584Z,99.99
2023-01-11T07:44:52.519Z,99.99
2023-01-11T07:45:52.767Z,99.99
2023-01-11T07:46:52.600Z,99.99
2023-01-11T07:47:52.344Z,99.99
2023-01-11T07:48:52.283Z,99.99
2023-01-11T07:49:52.231Z,99.99
2023-01-11T07:50:52.172Z,99.99
2023-01-11T07:51:52.131Z,99.99
2023-01-11T07:52:53.810Z,99.99
2023-01-11T07:53:51.991Z,99.99
2023-01-11T07:54:51.947Z,99.99
2023-01-11T07:55:51.872Z,99.99
2023-01-11T07:56:51.814Z,99.99
2023-01-11T07:57:51.755Z,99.99
2023-01-11T07:58:51.693Z,99.99
2023-01-11T07:59:51.652Z,99.99
2023-01-11T08:00:51.590Z,99.99
2023-01-11T08:01:51.520Z,99.99
2023-01-11T08:02:51.608Z,99.99
2023-01-11T08:03:51.454Z,99.99
2023-01-11T08:04:51.343Z,99.99
2023-01-11T08:05:51.293Z,99.99
2023-01-11T08:06:51.233Z,99.99
2023-01-11T08:07:51.163Z,99.99
2023-01-11T08:08:51.107Z,99.99
2023-01-11T08:09:51.046Z,99.99
2023-01-11T08:10:50.988Z,99.99
2023-01-11T08:11:50.936Z,99.99
2023-01-11T08:12:51.686Z,99.99
2023-01-11T08:13:50.815Z,99.99
2023-01-11T08:14:50.753Z,99.99
2023-01-11T08:15:50.743Z,99.99
2023-01-11T08:16:50.643Z,99.99
2023-01-11T08:17:50.578Z,99.99
2023-01-11T08:18:50.527Z,99.99
2023-01-11T08:19:50.473Z,99.99
2023-01-11T08:20:50.405Z,99.99
2023-01-11T08:21:50.351Z,99.99
2023-01-11T08:22:50.310Z,99.99
2023-01-11T08:23:50.233Z,99.99
2023-01-11T08:24:50.171Z,99.99
2023-01-11T08:25:50.113Z,99.99
2023-01-11T08:26:50.133Z,99.99
2023-01-11T08:27:50.028Z,99.99
2023-01-11T08:28:49.929Z,99.99
2023-01-11T08:29:49.887Z,99.99
2023-01-11T08:30:49.870Z,99.99
2023-01-11T08:31:49.762Z,99.99
2023-01-11T08:32:49.700Z,99.99
2023-01-11T08:33:49.644Z,99.99
2023-01-11T08:34:49.579Z,99.99
2023-01-11T08:35:49.521Z,99.99
2023-01-11T08:36:49.459Z,99.99
2023-01-11T08:37:49.404Z,99.99
2023-01-11T08:38:49.357Z,99.99
2023-01-11T08:39:49.290Z,99.99
2023-01-11T08:40:49.223Z,99.99
2023-01-11T08:41:49.173Z,99.99
2023-01-11T08:42:49.105Z,99.99
2023-01-11T08:43:49.049Z,99.99
2023-01-11T08:44:48.991Z,99.99
2023-01-11T08:45:48.935Z,99.99
2023-01-11T08:46:48.871Z,99.99
2023-01-11T08:47:48.817Z,99.99
2023-01-11T08:48:48.777Z,99.99
2023-01-11T08:49:48.695Z,99.99
2023-01-11T08:50:48.643Z,99.99
2023-01-11T08:51:48.578Z,99.99
2023-01-11T08:52:49.318Z,99.99
2023-01-11T08:53:48.463Z,99.99
2023-01-11T08:54:48.426Z,99.99
2023-01-11T08:55:48.348Z,99.99
2023-01-11T08:56:48.303Z,99.99
2023-01-11T08:57:48.244Z,99.99
2023-01-11T08:58:48.167Z,99.99
2023-01-11T08:59:48.113Z,99.99
2023-01-11T09:00:48.057Z,99.99
2023-01-11T09:01:48.067Z,99.99
2023-01-11T09:02:47.976Z,99.99
2023-01-11T09:03:47.879Z,99.99
2023-01-11T09:04:47.821Z,99.99
2023-01-11T09:05:47.769Z,99.99
2023-01-11T09:06:47.700Z,99.99
2023-01-11T09:07:47.655Z,99.99
2023-01-11T09:08:47.593Z,99.99
2023-01-11T09:09:47.521Z,99.99
2023-01-11T09:10:47.608Z,99.99
2023-01-11T09:11:47.408Z,99.99
2023-01-11T09:12:47.344Z,99.99
2023-01-11T09:13:47.292Z,99.99
2023-01-11T09:14:47.238Z,99.99
2023-01-11T09:15:47.272Z,99.99
2023-01-11T09:16:47.113Z,99.99
2023-01-11T09:17:47.061Z,99.99
2023-01-11T09:18:46.996Z,99.99
2023-01-11T09:19:46.934Z,99.99
2023-01-11T09:20:46.877Z,99.99
2023-01-11T09:21:46.821Z,99.99
2023-01-11T09:22:46.762Z,99.99
2023-01-11T09:23:46.703Z,99.99
2023-01-11T09:24:46.671Z,99.99
2023-01-11T09:25:46.594Z,99.99
2023-01-11T09:26:46.635Z,99.99
2023-01-11T09:27:46.466Z,99.99
2023-01-11T09:28:46.411Z,99.99
2023-01-11T09:29:46.452Z,99.99
2023-01-11T09:30:46.287Z,99.99
2023-01-11T09:31:46.242Z,99.99
2023-01-11T09:32:46.178Z,99.99
2023-01-11T09:33:46.113Z,99.99
2023-01-11T09:34:46.891Z,99.99
2023-01-11T09:35:45.999Z,99.99
2023-01-11T09:36:45.940Z,99.99
2023-01-11T09:37:45.886Z,99.99
2023-01-11T09:38:45.818Z,99.99
2023-01-11T09:39:45.764Z,99.99
2023-01-11T09:40:45.701Z,99.99
2023-01-11T09:41:45.651Z,99.99
2023-01-11T09:42:45.597Z,99.99
2023-01-11T09:43:45.535Z,99.99
2023-01-11T09:44:45.473Z,99.99
2023-01-11T09:45:45.407Z,99.99
2023-01-11T09:46:45.386Z,99.99
2023-01-11T09:47:45.295Z,99.99
2023-01-11T09:48:45.237Z,99.99
2023-01-11T09:49:45.177Z,99.99
2023-01-11T09:50:45.118Z,99.99
2023-01-11T09:51:45.055Z,99.99
2023-01-11T09:52:45.002Z,99.99
2023-01-11T09:53:44.937Z,99.99
2023-01-11T09:54:44.885Z,99.99
2023-01-11T09:55:44.834Z,99.99
2023-01-11T09:56:44.764Z,99.99
2023-01-11T09:57:44.772Z,99.99
2023-01-11T09:58:44.655Z,99.99
2023-01-11T09:59:44.592Z,99.99
2023-01-11T10:00:44.556Z,99.99
2023-01-11T10:01:44.478Z,99.99
2023-01-11T10:02:44.411Z,99.99
2023-01-11T10:03:44.393Z,99.99
2023-01-11T10:04:44.308Z,99.99
2023-01-11T10:05:44.255Z,99.99
2023-01-11T10:06:44.174Z,99.99
2023-01-11T10:07:44.117Z,99.99
2023-01-11T10:18:25.783Z,99.99
2023-01-11T10:18:26.031Z,99.99
2023-01-11T10:18:28.616Z,99.99
2023-01-11T10:18:32.233Z,99.99
2023-01-11T10:19:04.887Z,99.99
2023-01-11T10:19:43.599Z,99.99
2023-01-11T10:20:43.357Z,99.99
2023-01-11T10:21:43.296Z,99.99
2023-01-11T10:22:43.236Z,99.99
2023-01-11T10:23:43.188Z,99.99
2023-01-11T10:24:43.127Z,99.99
2023-01-11T10:25:43.061Z,99.99
2023-01-11T10:26:43.038Z,99.99
2023-01-11T10:27:42.999Z,99.99
2023-01-11T10:28:42.906Z,99.99
2023-01-11T10:29:42.834Z,99.99
2023-01-11T10:30:42.878Z,99.99
2023-01-11T10:31:42.749Z,99.99
2023-01-11T10:32:42.662Z,99.99
2023-01-11T10:33:42.602Z,99.99
2023-01-11T10:34:42.543Z,99.99
2023-01-11T10:35:42.478Z,99.99
2023-01-11T10:36:42.421Z,99.99
2023-01-11T10:37:42.366Z,99.99
2023-01-11T10:38:42.306Z,99.99
2023-01-11T10:39:42.244Z,99.99
2023-01-11T10:40:42.181Z,99.99
2023-01-11T10:41:43.219Z,99.99
2023-01-11T10:42:42.073Z,99.99
2023-01-11T10:43:42.015Z,99.99
2023-01-11T10:44:41.949Z,99.99
2023-01-11T10:45:41.912Z,99.99
2023-01-11T10:46:41.861Z,99.99
2023-01-11T10:47:41.784Z,99.99
2023-01-11T10:48:41.719Z,99.99
2023-01-11T10:49:41.658Z,99.99
2023-01-11T10:50:41.604Z,99.99
2023-01-11T10:51:42.353Z,99.99
2023-01-11T10:52:41.721Z,99.99
2023-01-11T10:53:41.430Z,99.99
2023-01-11T10:54:42.067Z,99.99
2023-01-11T10:55:41.310Z,99.99
2023-01-11T10:56:42.846Z,99.99
2023-01-11T10:58:00.101Z,99.99
2023-01-11T10:58:41.142Z,99.99
2023-01-11T10:59:41.080Z,99.99
2023-01-11T11:00:41.070Z,99.99
2023-01-11T11:01:41.016Z,99.99
2023-01-11T11:02:40.914Z,99.99
2023-01-11T11:03:40.836Z,99.99
2023-01-11T11:04:40.790Z,99.99
2023-01-11T11:05:40.720Z,99.99
2023-01-11T11:06:40.662Z,99.99
2023-01-11T11:07:40.601Z,99.99
2023-01-11T11:08:40.541Z,99.99
2023-01-11T11:09:40.488Z,99.99
2023-01-11T11:10:40.422Z,99.99
2023-01-11T11:11:40.367Z,99.99
2023-01-11T11:12:40.323Z,99.99
2023-01-11T11:13:41.871Z,99.99
2023-01-11T11:14:40.189Z,99.99
2023-01-11T11:15:40.137Z,99.99
2023-01-11T11:16:40.132Z,99.99
2023-01-11T11:17:40.022Z,99.99
2023-01-11T11:18:39.981Z,99.99
2023-01-11T11:19:41.835Z,99.99
2023-01-11T11:20:39.839Z,99.99
2023-01-11T11:21:39.787Z,99.99
2023-01-11T11:22:39.801Z,99.99
2023-01-11T11:23:39.670Z,99.99
2023-01-11T11:24:39.604Z,99.99
2023-01-11T11:25:41.396Z,99.99
2023-01-11T11:26:39.504Z,99.99
2023-01-11T11:27:39.429Z,99.99
2023-01-11T11:28:39.371Z,99.99
2023-01-11T11:29:39.324Z,99.99
2023-01-11T11:30:39.264Z,99.99
2023-01-11T11:31:41.044Z,99.99
2023-01-11T11:32:39.151Z,99.99
2023-01-11T11:33:39.160Z,99.99
2023-01-11T11:34:39.033Z,99.99
2023-01-11T11:35:38.960Z,99.99
2023-01-11T11:36:38.912Z,99.99
2023-01-11T11:37:38.848Z,99.99
2023-01-11T11:38:38.788Z,99.99
2023-01-11T11:39:38.734Z,99.99
2023-01-11T11:40:38.678Z,99.99
2023-01-11T11:41:38.610Z,99.99
2023-01-11T11:42:38.558Z,99.99
2023-01-11T11:43:38.505Z,99.99
2023-01-11T11:44:38.432Z,99.99
2023-01-11T11:45:41.425Z,99.99
2023-01-11T11:46:38.325Z,99.99
2023-01-11T11:47:38.267Z,99.99
2023-01-11T11:48:38.197Z,99.99
2023-01-11T11:49:38.145Z,99.99
2023-01-11T11:50:45.918Z,99.99
2023-01-11T11:51:38.037Z,99.99
2023-01-11T11:52:37.969Z,99.99
2023-01-11T11:53:37.916Z,99.99
2023-01-11T11:54:37.853Z,99.99
2023-01-11T11:55:37.796Z,99.99
2023-01-11T11:56:37.739Z,99.99
2023-01-11T11:57:37.677Z,99.99
2023-01-11T11:58:37.615Z,99.99
2023-01-11T11:59:37.569Z,99.99
2023-01-11T12:00:37.504Z,99.99
2023-01-11T12:01:37.438Z,99.99
2023-01-11T12:02:37.379Z,99.99
2023-01-11T12:03:37.327Z,99.99
2023-01-11T12:04:37.268Z,99.99
2023-01-11T12:05:37.204Z,99.99
2023-01-11T12:06:37.159Z,99.99
2023-01-11T12:07:49.862Z,99.99
2023-01-11T12:08:37.035Z,99.99
2023-01-11T12:09:37.008Z,99.99
2023-01-11T12:10:36.916Z,99.99
2023-01-11T12:11:36.854Z,99.99
2023-01-11T12:12:36.803Z,99.99
2023-01-11T12:13:36.738Z,99.99
2023-01-11T12:14:36.688Z,99.99
2023-01-11T12:15:36.632Z,99.99
2023-01-11T12:16:36.615Z,99.99
2023-01-11T12:17:36.505Z,99.99
2023-01-11T12:18:36.448Z,99.99
2023-01-11T12:19:36.391Z,99.99
2023-01-11T12:20:36.335Z,99.99
2023-01-11T12:21:36.271Z,99.99
2023-01-11T12:22:36.223Z,99.99
2023-01-11T12:23:36.166Z,99.99
2023-01-11T12:24:36.096Z,99.99
2023-01-11T12:25:36.040Z,99.99
2023-01-11T12:26:36.009Z,99.99
2023-01-11T12:27:35.919Z,99.99
2023-01-11T12:28:35.868Z,99.99
2023-01-11T12:29:35.797Z,99.99
2023-01-11T12:30:35.785Z,99.99
2023-01-11T12:31:35.693Z,99.99
2023-01-11T12:32:35.631Z,99.99
2023-01-11T12:33:35.564Z,99.99
2023-01-11T12:34:35.507Z,99.99
2023-01-11T12:35:35.457Z,99.99
2023-01-11T12:36:35.399Z,99.99
2023-01-11T12:37:35.344Z,99.99
2023-01-11T12:38:35.310Z,99.99
2023-01-11T12:39:35.245Z,99.99
2023-01-11T12:40:35.162Z,99.99
2023-01-11T12:41:35.108Z,99.99
2023-01-11T12:42:35.046Z,99.99
2023-01-11T12:43:34.989Z,99.99
2023-01-11T12:44:34.931Z,99.99
2023-01-11T12:45:34.866Z,99.99
2023-01-11T12:46:34.813Z,99.99
2023-01-11T12:47:34.752Z,99.99
2023-01-11T12:48:34.691Z,99.99
2023-01-11T12:49:34.646Z,99.99
2023-01-11T12:50:34.576Z,99.99
2023-01-11T12:51:34.535Z,99.99
2023-01-11T12:52:34.464Z,99.99
2023-01-11T12:53:34.401Z,99.99
2023-01-11T12:54:34.360Z,99.99
2023-01-11T12:55:34.295Z,99.99
2023-01-11T12:56:34.246Z,99.99
2023-01-11T12:57:34.163Z,99.99